Time;durP1;ratioP1;P1;durP2;ratioP2;P2;SDS_P1;SDS_P2;PMS_P1;PMS_P2;Temp;Humidity;BMP_temperature;BMP_pressure;BME280_temperature;BME280_humidity;BME280_pressure;Samples;Min_cycle;Max_cycle;Signal;HPM_P1;HPM_P2
2023/01/13 00:01:16;;;;;;;2.90;0.60;;;9.00;99.90;;;8.32;100.00;96947.88;5029126;28;20515;-38
2023/01/13 00:03:43;;;;;;;1.75;0.70;;;9.00;99.90;;;8.38;100.00;96954.66;5021437;28;20028;-38
2023/01/13 00:06:16;;;;;;;4.18;0.80;;;9.00;99.90;;;8.44;100.00;96944.00;5025367;28;20028;-38
2023/01/13 00:08:42;;;;;;;1.05;0.52;;;9.00;99.90;;;8.44;100.00;96936.09;5018070;28;20032;-38
2023/01/13 00:11:09;;;;;;;2.10;0.50;;;9.00;99.90;;;8.46;100.00;96938.69;5018059;28;20037;-38
2023/01/13 00:13:37;;;;;;;3.72;1.00;;;9.00;99.90;;;8.49;100.00;96926.28;5023767;28;20043;-37
2023/01/13 00:16:10;;;;;;;4.35;0.88;;;9.10;99.90;;;8.44;100.00;96924.75;5028637;28;20040;-38
2023/01/13 00:18:36;;;;;;;4.53;0.70;;;9.00;99.90;;;8.20;100.00;96895.75;5023790;28;20033;-38
2023/01/13 00:21:11;;;;;;;1.85;0.70;;;9.00;99.90;;;8.23;100.00;96927.19;5038097;28;20314;-38
2023/01/13 00:23:38;;;;;;;2.65;0.60;;;8.90;99.90;;;8.15;100.00;96918.72;5030485;28;20029;-38
2023/01/13 00:26:10;;;;;;;2.63;0.70;;;8.80;99.90;;;8.10;100.00;96918.88;5028167;28;20056;-38
2023/01/13 00:28:36;;;;;;;1.10;0.70;;;8.70;99.90;;;7.98;100.00;96887.78;5038849;28;20032;-38
2023/01/13 00:31:11;;;;;;;2.03;0.60;;;8.70;99.90;;;8.07;100.00;96912.88;5029741;28;20063;-38
2023/01/13 00:33:37;;;;;;;2.22;0.60;;;8.70;99.90;;;8.08;100.00;96901.47;5032143;28;20025;-38
2023/01/13 00:36:06;;;;;;;4.13;0.50;;;8.70;99.90;;;8.05;100.00;96906.81;5033660;28;20130;-38
2023/01/13 00:38:34;;;;;;;1.63;0.70;;;8.60;99.90;;;8.03;100.00;96893.72;5028085;28;20081;-38
2023/01/13 00:41:06;;;;;;;2.50;0.60;;;8.60;99.90;;;8.01;100.00;96891.16;5029597;28;20441;-37
2023/01/13 00:43:34;;;;;;;3.53;0.80;;;8.60;99.90;;;8.09;100.00;96888.25;5025098;28;20477;-38
2023/01/13 00:46:01;;;;;;;2.13;0.40;;;8.60;99.90;;;8.08;100.00;96878.69;5022879;28;20106;-38
2023/01/13 00:48:29;;;;;;;1.85;0.50;;;8.60;99.90;;;8.03;100.00;96883.22;5034067;28;20059;-37
2023/01/13 00:51:00;;;;;;;1.90;0.77;;;8.60;99.90;;;7.95;100.00;96875.63;5019118;28;20044;-37
2023/01/13 00:53:27;;;;;;;2.30;0.70;;;8.50;99.90;;;7.91;100.00;96873.16;5019034;28;20569;-37
2023/01/13 00:56:06;;;;;;;2.75;0.68;;;8.50;99.90;;;7.90;100.00;96871.47;5019616;28;20493;-38
2023/01/13 00:58:33;;;;;;;3.97;0.60;;;8.50;99.90;;;7.87;100.00;96868.94;5026635;28;20564;-38
2023/01/13 01:01:07;;;;;;;1.35;0.60;;;8.50;99.90;;;7.92;100.00;96869.63;5025329;28;20032;-38
2023/01/13 01:03:33;;;;;;;2.08;0.43;;;8.50;99.90;;;7.97;100.00;96863.31;5026977;28;20071;-38
2023/01/13 01:06:16;;;;;;;1.58;0.65;;;8.50;99.90;;;8.01;100.00;96872.78;5038802;28;20163;-38
2023/01/13 01:08:42;;;;;;;1.65;0.45;;;8.60;99.90;;;8.05;100.00;96870.91;5015956;28;20043;-38
2023/01/13 01:11:12;;;;;;;2.47;0.52;;;8.60;99.90;;;8.08;100.00;96865.53;5026183;28;20182;-38
2023/01/13 01:13:38;;;;;;;1.88;0.50;;;8.70;99.90;;;8.13;100.00;96865.38;5031174;28;20033;-38
2023/01/13 01:16:13;;;;;;;3.13;0.82;;;8.70;99.90;;;8.21;100.00;96869.44;5027737;28;20052;-38
2023/01/13 01:18:43;;;;;;;1.40;0.50;;;8.80;99.90;;;8.27;100.00;96876.22;5028547;28;20033;-37
2023/01/13 01:21:10;;;;;;;0.85;0.45;;;8.80;99.90;;;8.31;100.00;96869.09;5037645;28;20451;-37
2023/01/13 01:23:37;;;;;;;1.77;0.70;;;8.90;99.90;;;8.32;100.00;96865.56;5037622;28;20507;-38
2023/01/13 01:26:18;;;;;;;1.75;0.60;;;8.90;99.90;;;8.34;100.00;96875.09;5037363;28;20095;-37
2023/01/13 01:28:45;;;;;;;1.85;0.60;;;8.90;99.90;;;8.37;100.00;96872.38;5038087;28;20507;-38
2023/01/13 01:31:15;;;;;;;2.45;0.50;;;9.00;99.90;;;8.46;100.00;96867.72;5026670;28;20204;-38
2023/01/13 01:33:41;;;;;;;0.65;0.35;;;9.00;99.90;;;8.52;100.00;96870.97;5033114;28;20549;-38
2023/01/13 01:36:09;;;;;;;1.70;0.60;;;9.10;99.90;;;8.55;100.00;96857.72;5023957;28;20123;-37
2023/01/13 01:38:34;;;;;;;2.78;0.40;;;9.10;99.90;;;8.62;100.00;96861.00;5025326;28;22940;-38
2023/01/13 01:41:00;;;;;;;1.63;0.40;;;9.20;99.90;;;8.66;100.00;96864.34;5039753;28;20721;-37
2023/01/13 01:44:05;;;;;;;4.13;0.50;;;9.20;99.90;;;8.66;100.00;96859.94;5032867;28;20063;-37
2023/01/13 01:46:37;;;;;;;2.05;0.70;;;9.20;99.90;;;8.65;100.00;96860.00;5028912;28;20032;-37
2023/01/13 01:49:25;;;;;;;3.88;0.60;;;9.20;99.90;;;8.63;100.00;96861.84;5032290;28;20798;-37
2023/01/13 01:52:18;;;;;;;1.67;0.65;;;9.20;99.90;;;8.65;100.00;96854.75;5027588;28;20659;-37
2023/01/13 01:54:54;;;;;;;4.10;0.70;;;9.20;99.90;;;8.68;100.00;96857.25;5016207;28;20039;-37
2023/01/13 01:57:32;;;;;;;2.35;0.43;;;9.20;99.90;;;8.70;100.00;96852.81;5031308;28;20035;-37
2023/01/13 01:59:59;;;;;;;1.48;0.47;;;9.20;99.90;;;8.64;100.00;96850.41;5030725;28;20040;-38
2023/01/13 02:02:27;;;;;;;1.48;0.50;;;9.20;99.90;;;8.63;100.00;96856.56;5029866;28;20048;-37
2023/01/13 02:04:55;;;;;;;1.23;0.40;;;9.20;99.90;;;8.62;100.00;96844.38;5024858;28;20041;-37
2023/01/13 02:07:26;;;;;;;2.33;0.47;;;9.20;99.90;;;8.59;100.00;96845.31;5023230;28;20029;-37
2023/01/13 02:09:55;;;;;;;2.58;0.60;;;9.20;99.90;;;8.58;100.00;96846.25;5035889;28;20040;-37
2023/01/13 02:12:31;;;;;;;1.20;0.60;;;9.20;99.90;;;8.57;100.00;96842.75;5039825;28;20020;-37
2023/01/13 02:15:14;;;;;;;1.10;0.40;;;9.20;99.90;;;8.58;100.00;96848.88;5038590;28;20437;-38
2023/01/13 02:18:14;;;;;;;3.60;0.60;;;9.10;99.90;;;8.62;100.00;96855.72;5025767;28;20126;-38
2023/01/13 02:21:17;;;;;;;1.52;0.55;;;9.20;99.90;;;8.63;100.00;96839.03;5032948;28;20027;-38
2023/01/13 02:27:41;;;;;;;2.83;0.47;;;9.20;99.90;;;8.64;100.00;96826.75;5028080;28;20128;-37
2023/01/13 02:33:52;;;;;;;1.83;0.40;;;9.20;99.90;;;8.60;100.00;96831.28;5028093;28;20047;-37
2023/01/13 02:37:13;;;;;;;1.23;0.45;;;9.20;99.90;;;8.59;100.00;96822.50;5031730;28;20043;-37
2023/01/13 02:45:24;;;;;;;0.93;0.38;;;9.20;99.90;;;8.62;100.00;96820.72;5048825;28;20451;-45
2023/01/13 02:47:54;;;;;;;1.83;0.55;;;9.20;99.90;;;8.62;100.00;96818.09;5036714;28;20035;-45
2023/01/13 02:50:26;;;;;;;1.45;0.65;;;9.20;99.90;;;8.62;100.00;96818.94;5032634;28;20035;-44
2023/01/13 02:53:02;;;;;;;2.00;0.80;;;9.20;99.90;;;8.67;100.00;96816.09;5048527;28;20246;-44
2023/01/13 02:55:37;;;;;;;1.05;0.75;;;9.20;99.90;;;8.65;100.00;96802.16;5031099;28;20057;-45
2023/01/13 02:58:07;;;;;;;2.85;0.70;;;9.20;99.90;;;8.63;100.00;96806.63;5024587;28;21457;-44
2023/01/13 03:00:35;;;;;;;2.40;0.73;;;9.20;99.90;;;8.60;100.00;96795.31;5042930;28;20153;-44
2023/01/13 03:03:02;;;;;;;2.17;0.73;;;9.20;99.90;;;8.57;100.00;96792.81;5025936;28;20037;-45
2023/01/13 03:05:30;;;;;;;1.02;0.52;;;9.20;99.90;;;8.56;100.00;96793.75;5039647;28;20056;-44
2023/01/13 03:08:29;;;;;;;4.70;0.60;;;9.10;99.90;;;8.53;100.00;96793.00;5037609;28;20037;-48
2023/01/13 03:11:07;;;;;;;1.92;0.68;;;9.10;99.90;;;8.46;100.00;96797.63;5026197;28;20338;-48
2023/01/13 03:14:27;;;;;;;3.30;0.77;;;9.10;99.90;;;8.51;100.00;96808.84;5024850;28;20059;-46
2023/01/13 03:17:27;;;;;;;2.33;0.60;;;9.10;99.90;;;8.54;100.00;96805.22;5022598;28;20141;-44
2023/01/13 03:20:20;;;;;;;1.80;0.50;;;9.10;99.90;;;8.54;100.00;96813.09;5044443;28;20029;-49
2023/01/13 03:23:06;;;;;;;2.15;0.70;;;9.10;99.90;;;8.58;100.00;96804.19;5025193;28;20430;-51
2023/01/13 03:25:40;;;;;;;1.20;0.47;;;9.10;99.90;;;8.57;100.00;96813.84;5040200;28;20064;-49
2023/01/13 03:28:13;;;;;;;1.95;0.57;;;9.10;99.90;;;8.55;100.00;96809.56;5053713;28;20044;-47
2023/01/13 03:30:52;;;;;;;1.55;0.50;;;9.20;99.90;;;8.58;100.00;96791.91;5042559;28;20032;-48
2023/01/13 03:33:28;;;;;;;3.33;0.60;;;9.20;99.90;;;8.53;100.00;96795.63;5029109;28;20292;-49
2023/01/13 03:36:03;;;;;;;0.85;0.55;;;9.10;99.90;;;8.56;100.00;96793.75;5027712;28;20118;-47
2023/01/13 03:38:41;;;;;;;6.05;0.80;;;9.10;99.90;;;8.56;100.00;96791.13;5025860;28;20047;-45
2023/01/13 03:41:32;;;;;;;1.85;0.38;;;9.10;99.90;;;8.57;100.00;96774.41;5023117;28;20357;-48
2023/01/13 03:44:21;;;;;;;2.47;0.50;;;9.20;99.90;;;8.60;100.00;96779.56;5033421;28;20714;-45
2023/01/13 03:47:41;;;;;;;0.82;0.50;;;9.20;99.90;;;8.57;100.00;96778.81;5044185;28;20039;-46
2023/01/13 03:50:34;;;;;;;1.42;0.60;;;9.10;99.90;;;8.51;100.00;96769.41;4982975;28;20069;-49
2023/01/13 03:53:13;;;;;;;1.15;0.50;;;9.10;99.90;;;8.49;100.00;96773.00;5035881;28;20049;-48
2023/01/13 03:55:46;;;;;;;1.27;0.50;;;9.00;99.90;;;8.41;100.00;96778.53;5040309;28;20033;-47
2023/01/13 03:58:24;;;;;;;2.45;0.70;;;9.00;99.90;;;8.41;100.00;96768.00;5023453;28;20550;-44
2023/01/13 04:00:58;;;;;;;2.28;0.50;;;9.00;99.90;;;8.41;100.00;96778.53;5045718;28;20054;-47
2023/01/13 04:03:43;;;;;;;3.42;0.50;;;9.00;99.90;;;8.49;100.00;96775.63;5030018;28;20128;-51
2023/01/13 04:06:42;;;;;;;1.73;0.50;;;9.00;99.90;;;8.45;100.00;96761.75;5048937;28;20043;-46
2023/01/13 04:09:20;;;;;;;3.70;0.65;;;9.00;99.90;;;8.31;100.00;96733.38;5042567;28;20032;-46
2023/01/13 04:11:56;;;;;;;3.95;0.60;;;9.00;99.90;;;8.45;100.00;96759.13;5039214;28;20503;-45
2023/01/13 04:14:24;;;;;;;5.45;0.90;;;9.00;99.90;;;8.38;100.00;96750.59;5024817;28;20036;-50
2023/01/13 04:16:51;;;;;;;2.70;0.50;;;8.90;99.90;;;8.32;100.00;96740.31;5043692;28;20040;-47
2023/01/13 04:19:17;;;;;;;2.42;0.70;;;8.90;99.90;;;8.27;100.00;96738.78;5042263;28;20067;-46
2023/01/13 04:21:43;;;;;;;2.03;0.60;;;8.90;99.90;;;8.24;100.00;96737.16;5049105;28;20032;-49
2023/01/13 04:24:08;;;;;;;1.75;0.50;;;8.80;99.90;;;8.23;100.00;96740.66;5043475;28;20020;-51
2023/01/13 04:26:34;;;;;;;2.00;0.45;;;8.80;99.90;;;8.19;100.00;96754.84;5036461;28;20127;-49
2023/01/13 04:29:00;;;;;;;1.80;0.60;;;8.80;99.90;;;8.26;100.00;96753.69;5046555;28;20040;-45
2023/01/13 04:31:26;;;;;;;2.42;0.43;;;8.80;99.90;;;8.34;100.00;96756.88;5046013;28;20064;-46
2023/01/13 04:33:51;;;;;;;2.97;0.60;;;8.90;99.90;;;8.39;100.00;96751.44;5043505;28;20061;-49
2023/01/13 04:36:18;;;;;;;0.65;0.30;;;9.00;99.90;;;8.43;100.00;96754.84;5041789;28;20357;-49
2023/01/13 04:38:44;;;;;;;1.15;0.40;;;9.00;99.90;;;8.45;100.00;96753.84;5045799;28;20601;-49
2023/01/13 04:41:10;;;;;;;1.60;0.47;;;9.00;99.90;;;8.52;100.00;96743.97;5047232;28;20025;-49
2023/01/13 04:43:35;;;;;;;1.42;0.50;;;9.10;99.90;;;8.52;100.00;96739.56;5035272;28;20032;-47
2023/01/13 04:46:01;;;;;;;0.80;0.47;;;9.10;99.90;;;8.52;100.00;96723.81;5025916;28;20041;-48
2023/01/13 04:48:27;;;;;;;2.05;0.60;;;9.10;99.90;;;8.53;100.00;96729.94;5045424;28;20029;-46
2023/01/13 04:50:52;;;;;;;1.65;0.40;;;9.10;99.90;;;8.50;100.00;96730.03;5043321;28;20583;-50
2023/01/13 04:53:18;;;;;;;1.13;0.50;;;9.10;99.90;;;8.47;100.00;96735.41;5038928;28;20102;-46
2023/01/13 04:55:46;;;;;;;1.35;0.40;;;9.00;99.90;;;8.44;100.00;96735.56;5047084;28;20040;-47
2023/01/13 04:58:11;;;;;;;0.70;0.40;;;9.00;99.90;;;8.43;100.00;96734.69;5037825;28;20107;-46
2023/01/13 05:00:37;;;;;;;1.42;0.50;;;9.00;99.90;;;8.43;100.00;96723.31;5045903;28;20032;-46
2023/01/13 05:03:03;;;;;;;1.55;0.47;;;9.00;99.90;;;8.37;100.00;96711.25;5045876;28;20036;-46
2023/01/13 05:05:30;;;;;;;1.50;0.40;;;9.00;99.90;;;8.46;100.00;96720.56;5021450;28;20117;-47
2023/01/13 05:07:56;;;;;;;3.33;0.50;;;9.00;99.90;;;8.45;100.00;96732.84;5046435;28;20042;-48
2023/01/13 05:10:22;;;;;;;1.92;0.70;;;9.00;99.90;;;8.43;100.00;96733.84;5030746;28;20381;-45
2023/01/13 05:18:17;;;;;;;2.85;0.40;;;9.00;99.90;;;8.45;100.00;96753.84;5040550;28;20927;-47
2023/01/13 05:20:43;;;;;;;1.15;0.40;;;9.00;99.90;;;8.50;100.00;96741.41;5026035;28;20045;-49
2023/01/13 05:25:53;;;;;;;2.33;0.63;;;9.10;99.90;;;8.57;100.00;96747.28;5040085;28;20499;-46
2023/01/13 05:28:19;;;;;;;3.65;0.50;;;9.10;99.90;;;8.61;100.00;96746.22;5043632;28;20036;-47
2023/01/13 05:30:48;;;;;;;1.45;0.40;;;9.10;99.90;;;8.61;100.00;96748.88;5041932;28;20123;-46
2023/01/13 05:33:16;;;;;;;0.75;0.28;;;9.20;99.90;;;8.60;100.00;96748.03;5038351;28;20345;-49
2023/01/13 05:35:44;;;;;;;1.08;0.30;;;9.20;99.90;;;8.60;100.00;96742.75;5038255;28;20072;-47
2023/01/13 05:38:12;;;;;;;2.58;0.60;;;9.20;99.90;;;8.63;100.00;96739.16;5031760;28;20723;-47
2023/01/13 05:43:24;;;;;;;1.30;0.35;;;9.20;99.90;;;8.64;100.00;96734.75;5033772;28;20098;-49
2023/01/13 05:46:01;;;;;;;1.02;0.30;;;9.20;99.90;;;8.65;100.00;96723.31;5034976;28;20033;-48
2023/01/13 05:48:38;;;;;;;2.03;0.25;;;9.20;99.90;;;8.56;100.00;96729.78;5040043;28;20664;-45
2023/01/13 05:51:07;;;;;;;1.02;0.40;;;9.10;99.90;;;8.47;100.00;96715.28;5030250;28;20048;-48
2023/01/13 05:53:33;;;;;;;0.77;0.30;;;9.10;99.90;;;8.40;100.00;96719.88;5041030;28;20090;-46
2023/01/13 05:56:00;;;;;;;1.85;0.30;;;9.00;99.90;;;8.36;100.00;96701.66;5043739;28;20032;-46
2023/01/13 05:58:27;;;;;;;1.48;0.50;;;8.90;99.90;;;8.29;100.00;96695.78;5026458;28;20043;-45
2023/01/13 06:01:01;;;;;;;1.00;0.40;;;8.80;99.90;;;8.24;100.00;96713.50;5048265;28;21677;-48
2023/01/13 06:03:27;;;;;;;1.58;0.30;;;8.80;99.90;;;8.21;100.00;96718.88;5048563;28;20039;-46
2023/01/13 06:05:57;;;;;;;2.25;0.57;;;8.70;99.90;;;8.13;100.00;96711.28;5046465;28;20052;-48
2023/01/13 06:08:24;;;;;;;0.82;0.50;;;8.70;99.90;;;8.07;100.00;96710.66;5054988;28;20035;-48
2023/01/13 06:10:50;;;;;;;2.85;0.40;;;8.60;99.90;;;8.12;100.00;96709.56;5049663;28;20038;-46
2023/01/13 06:13:15;;;;;;;1.02;0.50;;;8.60;99.90;;;8.13;100.00;96719.16;5049580;28;20073;-48
2023/01/13 06:15:41;;;;;;;0.30;0.22;;;8.60;99.90;;;8.09;100.00;96721.94;5052858;28;20133;-47
2023/01/13 06:18:07;;;;;;;0.90;0.30;;;8.60;99.90;;;8.10;100.00;96718.44;5048992;28;20115;-49
2023/01/13 06:20:33;;;;;;;0.60;0.30;;;8.60;99.90;;;8.00;100.00;96710.03;5036733;28;20161;-47
2023/01/13 06:22:59;;;;;;;0.90;0.30;;;8.60;99.90;;;8.06;100.00;96728.19;5052531;28;20480;-45
2023/01/13 06:25:43;;;;;;;0.47;0.32;;;8.60;99.90;;;8.11;100.00;96734.13;5041175;28;20039;-47
2023/01/13 06:28:09;;;;;;;0.65;0.30;;;8.60;99.90;;;8.08;100.00;96723.72;5030016;28;20055;-46
2023/01/13 06:30:42;;;;;;;0.75;0.32;;;8.60;99.90;;;8.03;100.00;96729.16;5037023;28;20638;-49
2023/01/13 06:33:13;;;;;;;0.80;0.30;;;8.50;99.90;;;8.10;100.00;96735.03;5036864;28;20036;-47
2023/01/13 06:35:43;;;;;;;0.57;0.30;;;8.60;99.90;;;8.06;100.00;96738.69;5055433;28;20112;-47
2023/01/13 06:38:12;;;;;;;0.63;0.35;;;8.60;99.90;;;8.03;100.00;96731.78;5058593;28;20025;-49
2023/01/13 06:40:40;;;;;;;1.23;0.20;;;8.60;99.90;;;8.04;100.00;96735.28;5049906;28;20025;-48
2023/01/13 06:43:23;;;;;;;1.25;0.43;;;8.50;99.90;;;7.99;100.00;96732.81;5049084;28;20288;-49
2023/01/13 06:45:55;;;;;;;3.85;0.40;;;8.50;99.90;;;7.89;100.00;96717.44;5049737;28;20701;-50
2023/01/13 06:48:34;;;;;;;1.33;0.27;;;8.50;99.90;;;7.92;100.00;96723.44;5049087;28;20041;-46
2023/01/13 06:51:00;;;;;;;1.00;0.30;;;8.40;99.90;;;7.79;100.00;96701.19;5054073;28;20037;-48
2023/01/13 06:53:26;;;;;;;1.13;0.38;;;8.40;99.90;;;7.79;100.00;96723.06;5052875;28;20037;-46
2023/01/13 06:55:52;;;;;;;0.88;0.30;;;8.40;99.90;;;7.75;100.00;96713.59;5048212;28;20036;-47
2023/01/13 06:58:17;;;;;;;2.60;0.50;;;8.30;99.90;;;7.75;100.00;96713.59;5048278;28;20473;-46
2023/01/13 07:00:43;;;;;;;0.75;0.40;;;8.30;99.90;;;7.88;100.00;96707.84;5052849;28;20032;-47
2023/01/13 07:03:14;;;;;;;1.05;0.50;;;8.40;99.90;;;7.84;100.00;96713.25;5055148;28;20032;-49
2023/01/13 07:05:42;;;;;;;0.82;0.30;;;8.40;99.90;;;7.82;100.00;96707.19;5056810;28;20040;-47
2023/01/13 07:08:09;;;;;;;1.85;0.77;;;8.40;99.90;;;7.81;100.00;96708.09;5056034;28;20160;-50
2023/01/13 07:10:36;;;;;;;0.70;0.40;;;8.40;99.90;;;7.71;100.00;96696.22;5052162;28;20040;-49
2023/01/13 07:15:56;;;;;;;1.63;0.40;;;8.40;99.90;;;7.88;100.00;96716.59;5050952;28;20108;-50
2023/01/13 07:18:22;;;;;;;0.47;0.30;;;8.40;99.90;;;7.87;100.00;96720.13;5049401;28;20036;-45
2023/01/13 07:20:52;;;;;;;0.82;0.30;;;8.40;99.90;;;7.90;100.00;96713.94;5053579;28;20029;-49
2023/01/13 07:23:18;;;;;;;1.65;0.30;;;8.40;99.90;;;7.88;100.00;96705.22;5055346;28;20410;-49
2023/01/13 07:25:43;;;;;;;0.47;0.30;;;8.50;99.90;;;7.89;100.00;96710.44;5053429;28;20033;-50
2023/01/13 07:28:09;;;;;;;1.63;0.50;;;8.50;99.90;;;7.95;100.00;96704.97;5053479;28;20154;-49
2023/01/13 07:30:35;;;;;;;0.30;0.28;;;8.50;99.90;;;7.91;100.00;96710.38;5049316;28;20213;-50
2023/01/13 07:33:00;;;;;;;0.80;0.38;;;8.50;99.90;;;7.99;100.00;96721.47;5055434;28;20523;-49
2023/01/13 07:35:26;;;;;;;0.75;0.28;;;8.50;99.90;;;8.03;100.00;96733.56;5054057;28;20025;-49
2023/01/13 07:37:52;;;;;;;0.30;0.30;;;8.60;99.90;;;8.10;100.00;96739.44;5055026;28;20102;-49
2023/01/13 07:40:17;;;;;;;1.70;0.93;;;8.60;99.90;;;8.10;100.00;96732.41;5052709;28;20464;-48
2023/01/13 07:45:27;;;;;;;1.08;0.20;;;8.60;99.90;;;8.02;100.00;96713.44;5053738;28;20048;-48
2023/01/13 07:47:53;;;;;;;0.30;0.30;;;8.60;99.90;;;7.95;100.00;96725.09;5054269;28;20123;-47
2023/01/13 07:50:20;;;;;;;0.57;0.20;;;8.50;99.90;;;8.06;100.00;96729.94;5055745;28;20024;-50
2023/01/13 07:52:46;;;;;;;0.28;0.20;;;8.60;99.90;;;8.17;100.00;96720.75;5056175;28;20062;-48
2023/01/13 07:55:12;;;;;;;0.95;0.30;;;8.70;99.90;;;8.31;100.00;96728.13;5050374;28;20028;-44
2023/01/13 07:57:37;;;;;;;0.35;0.20;;;8.80;99.90;;;8.44;100.00;96736.41;5054611;28;20032;-47
2023/01/13 08:00:04;;;;;;;0.68;0.20;;;9.00;99.90;;;8.55;100.00;96742.09;5051952;28;20029;-49
2023/01/13 08:02:30;;;;;;;0.60;0.30;;;9.10;99.90;;;8.65;100.00;96737.34;5047521;28;20063;-50
2023/01/13 08:04:56;;;;;;;0.98;0.43;;;9.20;99.90;;;8.72;100.00;96730.03;5049113;28;20063;-47
2023/01/13 08:07:22;;;;;;;0.22;0.20;;;9.30;99.90;;;8.83;100.00;96745.38;5054775;28;20028;-45
2023/01/13 08:09:48;;;;;;;0.28;0.10;;;9.30;99.90;;;8.91;100.00;96741.53;5057783;28;20044;-49
2023/01/13 08:14:57;;;;;;;0.22;0.17;;;9.50;99.90;;;8.94;100.00;96738.78;5052371;28;20109;-50
2023/01/13 08:17:23;;;;;;;0.85;0.28;;;9.50;99.90;;;8.96;100.00;96744.81;5049719;28;20033;-45
2023/01/13 08:19:49;;;;;;;1.67;0.30;;;9.50;99.90;;;9.01;100.00;96747.28;5032400;28;20033;-47
2023/01/13 08:22:15;;;;;;;0.57;0.30;;;9.60;99.90;;;9.07;100.00;96761.94;5031311;28;20489;-46
2023/01/13 08:24:40;;;;;;;0.20;0.20;;;9.60;99.90;;;9.19;100.00;96753.56;5046274;28;20036;-49
2023/01/13 08:27:06;;;;;;;0.47;0.20;;;9.70;99.90;;;9.28;100.00;96761.06;5054340;28;20032;-47
2023/01/13 08:29:32;;;;;;;1.30;0.20;;;9.90;99.90;;;9.44;100.00;96776.19;5053231;28;20472;-48
2023/01/13 08:31:57;;;;;;;0.95;0.30;;;10.00;99.90;;;9.48;100.00;96772.53;5050174;28;20036;-44
2023/01/13 08:34:23;;;;;;;1.85;0.30;;;10.10;99.90;;;9.44;100.00;96774.44;5050824;28;20036;-46
2023/01/13 08:36:49;;;;;;;0.75;0.30;;;10.00;99.90;;;9.30;100.00;96777.63;5051540;28;20021;-46
2023/01/13 08:39:15;;;;;;;3.05;0.50;;;9.90;99.90;;;9.20;100.00;96765.78;5051649;28;20107;-46
2023/01/13 08:41:54;;;;;;;1.98;0.40;;;9.80;99.90;;;9.01;100.00;96773.59;5065691;22;20526;-37
2023/01/13 08:44:22;;;;;;;6.13;0.60;;;9.70;99.90;;;8.84;100.00;96800.53;5029692;28;20056;-37
2023/01/13 08:46:47;;;;;;;1.90;0.40;;;9.40;99.90;;;8.68;100.00;96802.91;5034020;28;20021;-38
2023/01/13 08:49:14;;;;;;;2.38;0.40;;;9.30;99.90;;;8.62;100.00;96812.81;5048044;28;20122;-38
2023/01/13 08:51:40;;;;;;;1.42;0.30;;;9.20;99.90;;;8.50;100.00;96817.63;5040310;28;20021;-38
2023/01/13 08:54:06;;;;;;;1.40;0.50;;;9.20;99.90;;;8.63;100.00;96838.19;5025242;28;20056;-38
2023/01/13 08:56:32;;;;;;;2.00;0.40;;;9.20;99.90;;;8.71;100.00;96838.75;5028383;28;20048;-38
2023/01/13 08:58:58;;;;;;;0.90;0.40;;;9.30;99.90;;;8.75;100.00;96835.09;5042081;28;20028;-38
2023/01/13 09:01:24;;;;;;;0.77;0.35;;;9.30;99.90;;;8.82;100.00;96854.97;5039564;28;20040;-38
2023/01/13 09:03:50;;;;;;;0.47;0.45;;;9.40;99.90;;;8.65;100.00;96860.00;5037211;28;20112;-38
2023/01/13 09:06:16;;;;;;;1.20;0.50;;;9.30;99.90;;;8.51;100.00;96878.94;5040588;28;20605;-38
2023/01/13 09:08:42;;;;;;;0.30;0.20;;;9.20;99.90;;;8.25;100.00;96871.97;5033494;28;20527;-38
2023/01/13 09:14:05;;;;;;;0.63;0.32;;;8.80;99.90;;;7.75;100.00;96886.81;5019282;28;20670;-37
2023/01/13 09:16:31;;;;;;;2.05;0.35;;;8.50;99.90;;;7.56;100.00;96890.97;5038836;28;20029;-37
2023/01/13 09:18:58;;;;;;;1.25;0.25;;;8.30;99.90;;;7.43;100.00;96885.28;5038742;28;23406;-37
2023/01/13 09:21:24;;;;;;;0.73;0.30;;;8.20;99.90;;;7.12;100.00;96852.13;5023268;28;20527;-38
2023/01/13 09:23:50;;;;;;;0.52;0.30;;;8.00;99.90;;;7.10;100.00;96868.84;5036834;28;20322;-37
2023/01/13 09:26:20;;;;;;;0.35;0.32;;;7.90;99.90;;;7.00;100.00;96876.13;5019080;28;20508;-37
2023/01/13 09:28:46;;;;;;;0.68;0.30;;;7.70;99.90;;;6.96;100.00;96890.22;5008145;28;20043;-38
2023/01/13 09:31:13;;;;;;;1.55;0.20;;;7.70;99.90;;;6.89;100.00;96881.69;5032191;28;20057;-37
2023/01/13 09:36:23;;;;;;;0.43;0.20;;;7.50;99.90;;;6.79;100.00;96875.03;5034861;28;20063;-37
2023/01/13 09:38:49;;;;;;;0.20;0.20;;;7.60;99.90;;;6.71;100.00;96856.03;5033750;28;20521;-37
2023/01/13 09:44:16;;;;;;;1.80;0.22;;;7.70;99.90;;;7.05;100.00;96861.09;5016440;28;20043;-37
2023/01/13 09:47:07;;;;;;;1.92;0.20;;;7.90;99.90;;;7.35;100.00;96898.59;5018620;28;20683;-37
2023/01/13 09:49:42;;;;;;;1.52;0.70;;;8.00;99.90;;;7.48;100.00;96898.22;5021263;28;20036;-38
2023/01/13 09:52:19;;;;;;;0.32;0.10;;;8.20;99.90;;;7.63;100.00;96890.69;5026923;28;21125;-37
2023/01/13 09:55:02;;;;;;;0.20;0.20;;;8.30;99.90;;;7.69;100.00;96879.13;5019049;28;20124;-37
2023/01/13 09:57:36;;;;;;;2.95;0.63;;;8.50;99.90;;;7.91;100.00;96902.88;5003870;28;20037;-37
2023/01/13 10:00:11;;;;;;;0.65;0.20;;;8.60;99.90;;;7.84;100.00;96914.50;5028540;28;20144;-38
2023/01/13 10:03:00;;;;;;;0.82;0.32;;;8.60;99.90;;;7.73;100.00;96899.13;5018052;28;20082;-37
2023/01/13 10:05:44;;;;;;;1.90;0.30;;;8.60;99.90;;;7.89;100.00;96923.09;5025861;28;20029;-37
2023/01/13 10:08:28;;;;;;;0.63;0.35;;;8.60;99.90;;;7.88;100.00;96928.38;5014480;28;20080;-37
2023/01/13 10:13:12;;;;;;;0.85;0.20;;;8.60;99.90;;;7.82;100.00;96932.97;5020610;28;20029;-38
2023/01/13 10:13:52;;;;;;;1.67;0.40;;;8.60;99.90;;;7.80;100.00;96928.66;5036223;28;20112;-36
2023/01/13 10:17:00;;;;;;;1.40;0.40;;;8.60;99.90;;;7.80;100.00;96929.50;5020880;28;20513;-37
2023/01/13 10:19:37;;;;;;;1.73;0.30;;;8.60;99.90;;;7.87;100.00;96927.53;5027020;28;20472;-36
2023/01/13 10:22:28;;;;;;;1.35;0.50;;;8.60;99.90;;;7.95;100.00;96928.16;5017173;28;20882;-36
2023/01/13 10:25:40;;;;;;;1.10;0.47;;;8.70;99.90;;;8.02;100.00;96920.88;5018408;28;20035;-37
2023/01/13 10:28:13;;;;;;;1.70;0.40;;;8.80;99.90;;;8.07;100.00;96931.25;5037695;28;20037;-36
2023/01/13 10:30:42;;;;;;;1.25;0.40;;;8.80;99.90;;;8.12;100.00;96921.44;5035794;28;20097;-37
2023/01/13 10:33:23;;;;;;;1.55;0.40;;;8.80;99.90;;;8.10;100.00;96929.38;5032704;28;20602;-37
2023/01/13 10:36:00;;;;;;;1.85;0.40;;;8.80;99.90;;;8.10;100.00;96925.91;5035260;28;20040;-37
2023/01/13 10:38:45;;;;;;;2.58;0.47;;;8.90;99.90;;;8.15;100.00;96939.75;5044077;28;20025;-37
2023/01/13 10:41:13;;;;;;;1.55;0.57;;;8.90;99.90;;;8.13;100.00;96931.91;5042847;28;20037;-37
2023/01/13 10:43:51;;;;;;;4.65;0.47;;;8.90;99.90;;;8.25;100.00;96929.75;5031025;28;20041;-37
2023/01/13 10:46:19;;;;;;;1.55;0.45;;;9.00;99.90;;;8.30;100.00;96927.81;5040015;28;20037;-37
2023/01/13 10:49:01;;;;;;;1.48;0.35;;;9.10;99.90;;;8.47;100.00;96936.00;5038416;28;20035;-37
2023/01/13 10:51:42;;;;;;;1.55;0.20;;;9.10;99.90;;;8.35;100.00;96952.16;5036672;28;20484;-37
2023/01/13 10:54:13;;;;;;;2.17;0.70;;;9.10;99.90;;;8.28;100.00;96954.16;5040766;28;20033;-37
2023/01/13 10:56:43;;;;;;;1.98;0.47;;;9.00;99.90;;;8.12;100.00;96956.44;5043067;28;20041;-37
2023/01/13 10:59:27;;;;;;;5.05;0.45;;;8.80;99.90;;;7.98;100.00;96958.69;5044789;28;20047;-37
2023/01/13 11:02:15;;;;;;;1.48;0.45;;;8.70;99.90;;;7.77;100.00;96957.63;5050274;28;20021;-37
2023/01/13 11:05:01;;;;;;;1.33;0.40;;;8.50;99.90;;;7.61;100.00;96945.00;5042801;28;20064;-37
2023/01/13 11:07:39;;;;;;;4.53;0.60;;;8.40;99.90;;;7.55;100.00;96946.97;5047500;28;21852;-37
2023/01/13 11:10:08;;;;;;;1.73;0.50;;;8.20;99.90;;;7.44;100.00;96952.56;5026150;28;20024;-37
2023/01/13 11:12:44;;;;;;;1.58;0.40;;;8.20;99.90;;;7.26;100.00;96948.75;5047159;28;20180;-37
2023/01/13 11:15:19;;;;;;;1.95;0.40;;;8.10;99.90;;;7.17;100.00;96949.88;5004765;28;20090;-37
2023/01/13 11:18:00;;;;;;;1.75;0.35;;;7.90;99.90;;;7.10;100.00;96958.00;5045967;28;20055;-37
2023/01/13 11:20:33;;;;;;;6.57;0.45;;;7.80;99.90;;;7.04;100.00;96962.50;5043984;28;20036;-37
2023/01/13 11:23:11;;;;;;;1.80;0.40;;;7.80;99.90;;;6.85;100.00;96941.22;5038504;28;20037;-36
2023/01/13 11:25:43;;;;;;;1.20;0.45;;;7.70;99.90;;;6.88;100.00;96969.09;5018980;28;20032;-37
2023/01/13 11:28:35;;;;;;;0.50;0.30;;;7.70;99.90;;;6.87;100.00;96976.13;5030235;28;20997;-37